sensor_id;sensor_type;location;lat;lon;timestamp;P1;durP1;ratioP1;P2;durP2;ratioP2
8594;SDS011;4335;48.860;9.198;2022-07-29T00:01:35;6.37;;;5.43;;
8594;SDS011;4335;48.860;9.198;2022-07-29T00:04:04;7.03;;;4.87;;
8594;SDS011;4335;48.860;9.198;2022-07-29T00:06:34;7.23;;;4.90;;
8594;SDS011;4335;48.860;9.198;2022-07-29T00:09:02;5.37;;;4.77;;
8594;SDS011;4335;48.860;9.198;2022-07-29T00:11:29;6.97;;;4.90;;
8594;SDS011;4335;48.860;9.198;2022-07-29T00:13:57;5.50;;;5.00;;
8594;SDS011;4335;48.860;9.198;2022-07-29T00:16:24;7.10;;;4.93;;
8594;SDS011;4335;48.860;9.198;2022-07-29T00:18:52;6.30;;;4.97;;
8594;SDS011;4335;48.860;9.198;2022-07-29T00:21:20;5.83;;;4.90;;
8594;SDS011;4335;48.860;9.198;2022-07-29T00:23:48;6.07;;;5.07;;
8594;SDS011;4335;48.860;9.198;2022-07-29T00:26:19;7.70;;;6.50;;
8594;SDS011;4335;48.860;9.198;2022-07-29T00:28:46;6.90;;;5.57;;
8594;SDS011;4335;48.860;9.198;2022-07-29T00:31:14;5.50;;;4.93;;
8594;SDS011;4335;48.860;9.198;2022-07-29T00:33:41;5.50;;;4.90;;
8594;SDS011;4335;48.860;9.198;2022-07-29T00:36:12;5.20;;;4.70;;
8594;SDS011;4335;48.860;9.198;2022-07-29T00:38:40;5.00;;;4.50;;
8594;SDS011;4335;48.860;9.198;2022-07-29T00:41:13;8.10;;;5.13;;
8594;SDS011;4335;48.860;9.198;2022-07-29T00:43:40;5.87;;;5.37;;
8594;SDS011;4335;48.860;9.198;2022-07-29T00:46:08;6.23;;;4.77;;
8594;SDS011;4335;48.860;9.198;2022-07-29T00:48:35;6.50;;;4.60;;
8594;SDS011;4335;48.860;9.198;2022-07-29T00:51:04;5.10;;;4.57;;
8594;SDS011;4335;48.860;9.198;2022-07-29T00:53:32;6.17;;;4.80;;
8594;SDS011;4335;48.860;9.198;2022-07-29T00:56:03;5.73;;;4.90;;
8594;SDS011;4335;48.860;9.198;2022-07-29T00:58:31;5.70;;;5.00;;
8594;SDS011;4335;48.860;9.198;2022-07-29T01:00:58;4.63;;;4.23;;
8594;SDS011;4335;48.860;9.198;2022-07-29T01:03:26;5.53;;;4.83;;
8594;SDS011;4335;48.860;9.198;2022-07-29T01:05:53;5.57;;;5.07;;
8594;SDS011;4335;48.860;9.198;2022-07-29T01:08:21;5.00;;;4.50;;
8594;SDS011;4335;48.860;9.198;2022-07-29T01:10:53;5.43;;;4.93;;
8594;SDS011;4335;48.860;9.198;2022-07-29T01:13:22;5.37;;;4.73;;
8594;SDS011;4335;48.860;9.198;2022-07-29T01:15:54;5.37;;;4.87;;
8594;SDS011;4335;48.860;9.198;2022-07-29T01:18:28;5.10;;;4.70;;
8594;SDS011;4335;48.860;9.198;2022-07-29T01:21:05;5.10;;;4.60;;
8594;SDS011;4335;48.860;9.198;2022-07-29T01:23:59;5.27;;;4.77;;
8594;SDS011;4335;48.860;9.198;2022-07-29T01:26:52;5.73;;;5.10;;
8594;SDS011;4335;48.860;9.198;2022-07-29T01:29:29;6.00;;;4.43;;
8594;SDS011;4335;48.860;9.198;2022-07-29T01:32:01;5.43;;;4.93;;
8594;SDS011;4335;48.860;9.198;2022-07-29T01:34:35;5.20;;;4.70;;
8594;SDS011;4335;48.860;9.198;2022-07-29T01:37:11;5.43;;;4.93;;
8594;SDS011;4335;48.860;9.198;2022-07-29T01:39:44;6.27;;;5.10;;
8594;SDS011;4335;48.860;9.198;2022-07-29T01:42:15;6.43;;;5.17;;
8594;SDS011;4335;48.860;9.198;2022-07-29T01:44:55;6.07;;;5.07;;
8594;SDS011;4335;48.860;9.198;2022-07-29T01:47:29;5.57;;;5.07;;
8594;SDS011;4335;48.860;9.198;2022-07-29T01:50:01;6.77;;;5.50;;
8594;SDS011;4335;48.860;9.198;2022-07-29T01:52:38;5.83;;;5.13;;
8594;SDS011;4335;48.860;9.198;2022-07-29T01:55:11;5.30;;;4.53;;
8594;SDS011;4335;48.860;9.198;2022-07-29T01:57:42;6.07;;;5.00;;
8594;SDS011;4335;48.860;9.198;2022-07-29T02:00:14;5.40;;;4.90;;
8594;SDS011;4335;48.860;9.198;2022-07-29T02:02:48;6.43;;;5.50;;
8594;SDS011;4335;48.860;9.198;2022-07-29T02:05:17;5.37;;;4.80;;
8594;SDS011;4335;48.860;9.198;2022-07-29T02:07:50;6.30;;;5.17;;
8594;SDS011;4335;48.860;9.198;2022-07-29T02:10:23;6.10;;;5.50;;
8594;SDS011;4335;48.860;9.198;2022-07-29T02:12:57;4.93;;;4.43;;
8594;SDS011;4335;48.860;9.198;2022-07-29T02:15:28;6.33;;;4.83;;
8594;SDS011;4335;48.860;9.198;2022-07-29T02:17:58;5.90;;;4.63;;
8594;SDS011;4335;48.860;9.198;2022-07-29T02:20:28;5.40;;;5.00;;
8594;SDS011;4335;48.860;9.198;2022-07-29T02:22:57;5.33;;;4.93;;
8594;SDS011;4335;48.860;9.198;2022-07-29T02:25:29;5.77;;;5.17;;
8594;SDS011;4335;48.860;9.198;2022-07-29T02:27:58;5.83;;;5.30;;
8594;SDS011;4335;48.860;9.198;2022-07-29T02:30:28;5.60;;;5.10;;
8594;SDS011;4335;48.860;9.198;2022-07-29T02:32:56;5.50;;;5.00;;
8594;SDS011;4335;48.860;9.198;2022-07-29T02:35:25;6.27;;;5.63;;
8594;SDS011;4335;48.860;9.198;2022-07-29T02:37:53;5.50;;;5.00;;
8594;SDS011;4335;48.860;9.198;2022-07-29T02:40:38;5.73;;;5.23;;
8594;SDS011;4335;48.860;9.198;2022-07-29T02:43:08;8.30;;;5.97;;
8594;SDS011;4335;48.860;9.198;2022-07-29T02:45:38;6.30;;;5.70;;
8594;SDS011;4335;48.860;9.198;2022-07-29T02:48:07;6.73;;;5.53;;
8594;SDS011;4335;48.860;9.198;2022-07-29T02:50:41;5.80;;;5.30;;
8594;SDS011;4335;48.860;9.198;2022-07-29T02:53:14;6.20;;;5.30;;
8594;SDS011;4335;48.860;9.198;2022-07-29T02:55:45;6.63;;;5.83;;
8594;SDS011;4335;48.860;9.198;2022-07-29T02:58:21;6.27;;;5.67;;
8594;SDS011;4335;48.860;9.198;2022-07-29T03:00:55;7.47;;;5.57;;
8594;SDS011;4335;48.860;9.198;2022-07-29T03:03:25;6.30;;;5.70;;
8594;SDS011;4335;48.860;9.198;2022-07-29T03:05:59;5.80;;;5.30;;
8594;SDS011;4335;48.860;9.198;2022-07-29T03:08:28;8.20;;;5.40;;
8594;SDS011;4335;48.860;9.198;2022-07-29T03:10:57;6.90;;;6.20;;
8594;SDS011;4335;48.860;9.198;2022-07-29T03:13:25;5.93;;;5.43;;
8594;SDS011;4335;48.860;9.198;2022-07-29T03:15:55;5.93;;;5.43;;
8594;SDS011;4335;48.860;9.198;2022-07-29T03:18:23;9.40;;;5.77;;
8594;SDS011;4335;48.860;9.198;2022-07-29T03:20:52;5.50;;;4.93;;
8594;SDS011;4335;48.860;9.198;2022-07-29T03:23:31;6.13;;;5.53;;
8594;SDS011;4335;48.860;9.198;2022-07-29T03:25:59;7.47;;;5.93;;
8594;SDS011;4335;48.860;9.198;2022-07-29T03:28:27;6.23;;;5.10;;
8594;SDS011;4335;48.860;9.198;2022-07-29T03:30:56;5.63;;;5.13;;
8594;SDS011;4335;48.860;9.198;2022-07-29T03:33:23;6.90;;;6.30;;
8594;SDS011;4335;48.860;9.198;2022-07-29T03:35:51;5.90;;;5.40;;
8594;SDS011;4335;48.860;9.198;2022-07-29T03:38:18;7.43;;;5.70;;
8594;SDS011;4335;48.860;9.198;2022-07-29T03:40:51;8.00;;;5.63;;
8594;SDS011;4335;48.860;9.198;2022-07-29T03:43:20;6.40;;;5.90;;
8594;SDS011;4335;48.860;9.198;2022-07-29T03:45:49;6.73;;;5.37;;
8594;SDS011;4335;48.860;9.198;2022-07-29T03:48:22;6.43;;;5.83;;
8594;SDS011;4335;48.860;9.198;2022-07-29T03:50:55;6.70;;;5.97;;
8594;SDS011;4335;48.860;9.198;2022-07-29T03:53:22;6.17;;;5.60;;
8594;SDS011;4335;48.860;9.198;2022-07-29T03:55:52;6.63;;;6.07;;
8594;SDS011;4335;48.860;9.198;2022-07-29T03:58:27;7.47;;;6.77;;
8594;SDS011;4335;48.860;9.198;2022-07-29T04:00:59;6.13;;;5.50;;
8594;SDS011;4335;48.860;9.198;2022-07-29T04:03:29;8.47;;;5.87;;
8594;SDS011;4335;48.860;9.198;2022-07-29T04:06:00;7.23;;;6.00;;
8594;SDS011;4335;48.860;9.198;2022-07-29T04:08:28;6.60;;;5.93;;
8594;SDS011;4335;48.860;9.198;2022-07-29T04:10:58;6.43;;;5.70;;
8594;SDS011;4335;48.860;9.198;2022-07-29T04:13:26;6.27;;;5.77;;
8594;SDS011;4335;48.860;9.198;2022-07-29T04:15:54;6.47;;;5.43;;
8594;SDS011;4335;48.860;9.198;2022-07-29T04:18:21;5.47;;;5.07;;
8594;SDS011;4335;48.860;9.198;2022-07-29T04:20:53;7.10;;;5.27;;
8594;SDS011;4335;48.860;9.198;2022-07-29T04:23:20;8.17;;;5.80;;
8594;SDS011;4335;48.860;9.198;2022-07-29T04:25:51;6.20;;;5.60;;
8594;SDS011;4335;48.860;9.198;2022-07-29T04:28:20;6.40;;;5.80;;
8594;SDS011;4335;48.860;9.198;2022-07-29T04:30:54;5.60;;;5.10;;
8594;SDS011;4335;48.860;9.198;2022-07-29T04:33:21;6.33;;;5.30;;
8594;SDS011;4335;48.860;9.198;2022-07-29T04:35:56;6.90;;;6.30;;
8594;SDS011;4335;48.860;9.198;2022-07-29T04:38:23;6.77;;;6.17;;
8594;SDS011;4335;48.860;9.198;2022-07-29T04:40:54;6.17;;;5.60;;
8594;SDS011;4335;48.860;9.198;2022-07-29T04:43:21;6.97;;;6.27;;
8594;SDS011;4335;48.860;9.198;2022-07-29T04:45:49;5.77;;;5.17;;
8594;SDS011;4335;48.860;9.198;2022-07-29T04:48:17;6.00;;;5.07;;
8594;SDS011;4335;48.860;9.198;2022-07-29T04:50:44;5.63;;;5.13;;
8594;SDS011;4335;48.860;9.198;2022-07-29T04:53:14;6.90;;;6.20;;
8594;SDS011;4335;48.860;9.198;2022-07-29T04:55:41;6.73;;;5.90;;
8594;SDS011;4335;48.860;9.198;2022-07-29T04:58:14;9.10;;;6.90;;
8594;SDS011;4335;48.860;9.198;2022-07-29T05:00:45;11.57;;;6.37;;
8594;SDS011;4335;48.860;9.198;2022-07-29T05:03:12;8.57;;;5.30;;
8594;SDS011;4335;48.860;9.198;2022-07-29T05:05:40;6.33;;;5.67;;
8594;SDS011;4335;48.860;9.198;2022-07-29T05:08:07;6.83;;;5.97;;
8594;SDS011;4335;48.860;9.198;2022-07-29T05:10:36;7.97;;;5.97;;
8594;SDS011;4335;48.860;9.198;2022-07-29T05:13:04;7.67;;;6.03;;
8594;SDS011;4335;48.860;9.198;2022-07-29T05:15:32;6.70;;;6.00;;
8594;SDS011;4335;48.860;9.198;2022-07-29T05:18:03;8.40;;;6.60;;
8594;SDS011;4335;48.860;9.198;2022-07-29T05:20:31;8.10;;;6.03;;
8594;SDS011;4335;48.860;9.198;2022-07-29T05:23:02;6.33;;;5.73;;
8594;SDS011;4335;48.860;9.198;2022-07-29T05:25:29;12.07;;;6.10;;
8594;SDS011;4335;48.860;9.198;2022-07-29T05:27:58;8.97;;;5.80;;
8594;SDS011;4335;48.860;9.198;2022-07-29T05:30:26;6.97;;;5.70;;
8594;SDS011;4335;48.860;9.198;2022-07-29T05:33:02;6.87;;;6.17;;
8594;SDS011;4335;48.860;9.198;2022-07-29T05:35:29;6.87;;;5.73;;
8594;SDS011;4335;48.860;9.198;2022-07-29T05:38:03;5.47;;;4.97;;
8594;SDS011;4335;48.860;9.198;2022-07-29T05:40:30;5.80;;;4.83;;
8594;SDS011;4335;48.860;9.198;2022-07-29T05:43:05;5.47;;;4.97;;
8594;SDS011;4335;48.860;9.198;2022-07-29T05:45:32;6.03;;;5.30;;
8594;SDS011;4335;48.860;9.198;2022-07-29T05:48:00;6.00;;;5.50;;
8594;SDS011;4335;48.860;9.198;2022-07-29T05:50:27;5.93;;;5.43;;
8594;SDS011;4335;48.860;9.198;2022-07-29T05:52:55;5.87;;;5.20;;
8594;SDS011;4335;48.860;9.198;2022-07-29T05:55:22;6.00;;;5.50;;
8594;SDS011;4335;48.860;9.198;2022-07-29T05:57:51;5.47;;;4.93;;
8594;SDS011;4335;48.860;9.198;2022-07-29T06:00:20;5.13;;;4.67;;
8594;SDS011;4335;48.860;9.198;2022-07-29T06:02:48;5.63;;;5.10;;
8594;SDS011;4335;48.860;9.198;2022-07-29T06:05:15;6.27;;;5.20;;
8594;SDS011;4335;48.860;9.198;2022-07-29T06:07:43;6.17;;;5.30;;
8594;SDS011;4335;48.860;9.198;2022-07-29T06:10:13;7.80;;;5.37;;
8594;SDS011;4335;48.860;9.198;2022-07-29T06:12:41;7.13;;;4.90;;
8594;SDS011;4335;48.860;9.198;2022-07-29T06:15:09;4.80;;;4.40;;
8594;SDS011;4335;48.860;9.198;2022-07-29T06:17:38;4.80;;;3.70;;
8594;SDS011;4335;48.860;9.198;2022-07-29T06:20:05;5.20;;;4.53;;
8594;SDS011;4335;48.860;9.198;2022-07-29T06:22:33;4.53;;;4.10;;
8594;SDS011;4335;48.860;9.198;2022-07-29T06:25:01;4.40;;;4.00;;
8594;SDS011;4335;48.860;9.198;2022-07-29T06:27:28;7.40;;;4.23;;
8594;SDS011;4335;48.860;9.198;2022-07-29T06:29:56;4.47;;;4.00;;
8594;SDS011;4335;48.860;9.198;2022-07-29T06:32:23;4.73;;;4.30;;
8594;SDS011;4335;48.860;9.198;2022-07-29T06:34:52;4.10;;;3.70;;
8594;SDS011;4335;48.860;9.198;2022-07-29T06:37:19;6.60;;;4.73;;
8594;SDS011;4335;48.860;9.198;2022-07-29T06:39:47;3.95;;;3.55;;
8594;SDS011;4335;48.860;9.198;2022-07-29T06:42:35;4.38;;;3.97;;
8594;SDS011;4335;48.860;9.198;2022-07-29T06:45:03;4.30;;;3.58;;
8594;SDS011;4335;48.860;9.198;2022-07-29T06:47:30;4.47;;;3.45;;
8594;SDS011;4335;48.860;9.198;2022-07-29T06:50:02;4.53;;;3.65;;
8594;SDS011;4335;48.860;9.198;2022-07-29T06:52:31;4.97;;;3.28;;
8594;SDS011;4335;48.860;9.198;2022-07-29T06:54:58;5.50;;;3.28;;
8594;SDS011;4335;48.860;9.198;2022-07-29T06:57:26;6.10;;;3.20;;
8594;SDS011;4335;48.860;9.198;2022-07-29T06:59:53;4.10;;;3.75;;
8594;SDS011;4335;48.860;9.198;2022-07-29T07:02:22;3.33;;;3.03;;
8594;SDS011;4335;48.860;9.198;2022-07-29T07:04:50;3.50;;;3.20;;
8594;SDS011;4335;48.860;9.198;2022-07-29T07:07:19;6.65;;;3.30;;
8594;SDS011;4335;48.860;9.198;2022-07-29T07:09:49;4.57;;;3.13;;
8594;SDS011;4335;48.860;9.198;2022-07-29T07:12:20;3.33;;;3.03;;
8594;SDS011;4335;48.860;9.198;2022-07-29T07:14:47;3.72;;;2.95;;
8594;SDS011;4335;48.860;9.198;2022-07-29T07:17:15;8.50;;;2.80;;
8594;SDS011;4335;48.860;9.198;2022-07-29T07:19:42;3.92;;;2.92;;
8594;SDS011;4335;48.860;9.198;2022-07-29T07:22:10;4.30;;;3.03;;
8594;SDS011;4335;48.860;9.198;2022-07-29T07:24:41;3.65;;;3.35;;
8594;SDS011;4335;48.860;9.198;2022-07-29T07:27:11;8.75;;;3.95;;
8594;SDS011;4335;48.860;9.198;2022-07-29T07:29:39;4.72;;;3.00;;
8594;SDS011;4335;48.860;9.198;2022-07-29T07:32:17;5.28;;;2.97;;
8594;SDS011;4335;48.860;9.198;2022-07-29T07:34:47;3.28;;;2.97;;
8594;SDS011;4335;48.860;9.198;2022-07-29T07:37:15;4.43;;;2.85;;
8594;SDS011;4335;48.860;9.198;2022-07-29T07:39:46;3.83;;;3.15;;
8594;SDS011;4335;48.860;9.198;2022-07-29T07:42:13;6.80;;;2.95;;
8594;SDS011;4335;48.860;9.198;2022-07-29T07:44:41;3.88;;;3.05;;
8594;SDS011;4335;48.860;9.198;2022-07-29T07:47:08;3.42;;;2.55;;
8594;SDS011;4335;48.860;9.198;2022-07-29T07:49:38;3.63;;;3.33;;
8594;SDS011;4335;48.860;9.198;2022-07-29T07:52:07;4.95;;;3.10;;
8594;SDS011;4335;48.860;9.198;2022-07-29T07:54:35;3.30;;;3.00;;
8594;SDS011;4335;48.860;9.198;2022-07-29T07:57:04;4.28;;;3.25;;
8594;SDS011;4335;48.860;9.198;2022-07-29T07:59:31;4.00;;;3.08;;
8594;SDS011;4335;48.860;9.198;2022-07-29T08:02:02;3.90;;;3.05;;
8594;SDS011;4335;48.860;9.198;2022-07-29T08:04:32;3.92;;;3.30;;
8594;SDS011;4335;48.860;9.198;2022-07-29T08:07:00;3.83;;;3.20;;
8594;SDS011;4335;48.860;9.198;2022-07-29T08:09:29;3.05;;;2.72;;
8594;SDS011;4335;48.860;9.198;2022-07-29T08:11:57;4.63;;;3.30;;
8594;SDS011;4335;48.860;9.198;2022-07-29T08:14:26;3.10;;;2.80;;
8594;SDS011;4335;48.860;9.198;2022-07-29T08:16:59;3.20;;;2.92;;
8594;SDS011;4335;48.860;9.198;2022-07-29T08:19:27;4.60;;;2.90;;
8594;SDS011;4335;48.860;9.198;2022-07-29T08:21:54;3.78;;;2.70;;
8594;SDS011;4335;48.860;9.198;2022-07-29T08:24:21;3.60;;;3.30;;
8594;SDS011;4335;48.860;9.198;2022-07-29T08:27:06;3.15;;;2.70;;
8594;SDS011;4335;48.860;9.198;2022-07-29T08:29:39;3.60;;;2.75;;
8594;SDS011;4335;48.860;9.198;2022-07-29T08:32:06;3.58;;;2.63;;
8594;SDS011;4335;48.860;9.198;2022-07-29T08:34:34;3.72;;;2.60;;
8594;SDS011;4335;48.860;9.198;2022-07-29T08:37:01;5.18;;;2.80;;
8594;SDS011;4335;48.860;9.198;2022-07-29T08:39:29;3.75;;;3.20;;
8594;SDS011;4335;48.860;9.198;2022-07-29T08:41:56;4.65;;;3.05;;
8594;SDS011;4335;48.860;9.198;2022-07-29T08:44:24;3.67;;;2.92;;
8594;SDS011;4335;48.860;9.198;2022-07-29T08:46:53;5.90;;;3.67;;
8594;SDS011;4335;48.860;9.198;2022-07-29T08:49:21;3.70;;;2.72;;
8594;SDS011;4335;48.860;9.198;2022-07-29T08:51:48;3.17;;;2.70;;
8594;SDS011;4335;48.860;9.198;2022-07-29T08:54:19;6.05;;;2.88;;
8594;SDS011;4335;48.860;9.198;2022-07-29T08:56:48;4.47;;;2.83;;
8594;SDS011;4335;48.860;9.198;2022-07-29T08:59:16;3.33;;;2.90;;
8594;SDS011;4335;48.860;9.198;2022-07-29T09:01:47;4.53;;;3.08;;
8594;SDS011;4335;48.860;9.198;2022-07-29T09:04:20;5.10;;;2.92;;
8594;SDS011;4335;48.860;9.198;2022-07-29T09:06:51;3.17;;;2.80;;
8594;SDS011;4335;48.860;9.198;2022-07-29T09:09:20;3.40;;;3.10;;
8594;SDS011;4335;48.860;9.198;2022-07-29T09:11:49;4.90;;;3.35;;
8594;SDS011;4335;48.860;9.198;2022-07-29T09:14:18;3.13;;;2.83;;
8594;SDS011;4335;48.860;9.198;2022-07-29T09:16:49;3.65;;;2.95;;
8594;SDS011;4335;48.860;9.198;2022-07-29T09:19:24;4.75;;;2.85;;
8594;SDS011;4335;48.860;9.198;2022-07-29T09:21:53;6.25;;;2.72;;
8594;SDS011;4335;48.860;9.198;2022-07-29T09:24:23;7.50;;;3.30;;
8594;SDS011;4335;48.860;9.198;2022-07-29T09:26:51;3.80;;;3.40;;
8594;SDS011;4335;48.860;9.198;2022-07-29T09:29:19;3.88;;;2.58;;
8594;SDS011;4335;48.860;9.198;2022-07-29T09:31:50;4.60;;;3.33;;
8594;SDS011;4335;48.860;9.198;2022-07-29T09:34:21;4.50;;;3.10;;
8594;SDS011;4335;48.860;9.198;2022-07-29T09:36:54;5.75;;;3.30;;
8594;SDS011;4335;48.860;9.198;2022-07-29T09:39:28;5.18;;;3.00;;
8594;SDS011;4335;48.860;9.198;2022-07-29T09:41:58;3.83;;;3.17;;
8594;SDS011;4335;48.860;9.198;2022-07-29T09:44:26;5.20;;;3.55;;
8594;SDS011;4335;48.860;9.198;2022-07-29T09:46:54;4.88;;;3.90;;
8594;SDS011;4335;48.860;9.198;2022-07-29T09:49:32;5.28;;;3.38;;
8594;SDS011;4335;48.860;9.198;2022-07-29T09:52:06;5.22;;;3.10;;
8594;SDS011;4335;48.860;9.198;2022-07-29T09:54:36;5.60;;;3.30;;
8594;SDS011;4335;48.860;9.198;2022-07-29T09:57:04;5.68;;;3.17;;
8594;SDS011;4335;48.860;9.198;2022-07-29T09:59:34;3.83;;;3.53;;
8594;SDS011;4335;48.860;9.198;2022-07-29T10:02:01;4.10;;;3.08;;
8594;SDS011;4335;48.860;9.198;2022-07-29T10:04:40;3.75;;;3.33;;
8594;SDS011;4335;48.860;9.198;2022-07-29T10:07:08;4.00;;;2.95;;
8594;SDS011;4335;48.860;9.198;2022-07-29T10:09:36;4.18;;;3.13;;
8594;SDS011;4335;48.860;9.198;2022-07-29T10:12:13;7.35;;;4.45;;
8594;SDS011;4335;48.860;9.198;2022-07-29T10:14:40;5.05;;;3.65;;
8594;SDS011;4335;48.860;9.198;2022-07-29T10:17:09;6.13;;;4.53;;
8594;SDS011;4335;48.860;9.198;2022-07-29T10:19:37;4.80;;;3.55;;
8594;SDS011;4335;48.860;9.198;2022-07-29T10:22:10;4.35;;;3.50;;
8594;SDS011;4335;48.860;9.198;2022-07-29T10:24:38;4.05;;;3.65;;
8594;SDS011;4335;48.860;9.198;2022-07-29T10:27:06;6.93;;;3.92;;
8594;SDS011;4335;48.860;9.198;2022-07-29T10:29:37;5.47;;;4.40;;
8594;SDS011;4335;48.860;9.198;2022-07-29T10:32:14;5.68;;;3.88;;
8594;SDS011;4335;48.860;9.198;2022-07-29T10:35:06;5.97;;;4.10;;
8594;SDS011;4335;48.860;9.198;2022-07-29T10:40:54;6.70;;;4.90;;
8594;SDS011;4335;48.860;9.198;2022-07-29T10:43:47;5.63;;;5.13;;
8594;SDS011;4335;48.860;9.198;2022-07-29T10:46:15;6.90;;;4.32;;
8594;SDS011;4335;48.860;9.198;2022-07-29T10:51:53;6.30;;;5.40;;
8594;SDS011;4335;48.860;9.198;2022-07-29T10:54:38;6.63;;;4.15;;
8594;SDS011;4335;48.860;9.198;2022-07-29T10:57:19;5.03;;;4.28;;
8594;SDS011;4335;48.860;9.198;2022-07-29T11:02:54;6.30;;;4.78;;
8594;SDS011;4335;48.860;9.198;2022-07-29T11:05:26;6.00;;;4.50;;
8594;SDS011;4335;48.860;9.198;2022-07-29T11:10:48;6.60;;;5.25;;
8594;SDS011;4335;48.860;9.198;2022-07-29T11:16:13;7.00;;;4.57;;
8594;SDS011;4335;48.860;9.198;2022-07-29T11:21:41;7.72;;;4.70;;
8594;SDS011;4335;48.860;9.198;2022-07-29T11:24:13;6.53;;;5.10;;
8594;SDS011;4335;48.860;9.198;2022-07-29T11:26:42;4.75;;;4.28;;
8594;SDS011;4335;48.860;9.198;2022-07-29T11:29:18;5.43;;;4.60;;
8594;SDS011;4335;48.860;9.198;2022-07-29T11:31:51;6.93;;;5.50;;
8594;SDS011;4335;48.860;9.198;2022-07-29T11:34:21;6.95;;;5.38;;
8594;SDS011;4335;48.860;9.198;2022-07-29T11:42:52;5.95;;;5.30;;
8594;SDS011;4335;48.860;9.198;2022-07-29T11:45:20;8.98;;;5.45;;
8594;SDS011;4335;48.860;9.198;2022-07-29T11:47:57;8.85;;;5.57;;
8594;SDS011;4335;48.860;9.198;2022-07-29T11:50:34;6.18;;;5.20;;
8594;SDS011;4335;48.860;9.198;2022-07-29T11:53:10;6.32;;;4.75;;
8594;SDS011;4335;48.860;9.198;2022-07-29T11:55:38;8.10;;;5.72;;
8594;SDS011;4335;48.860;9.198;2022-07-29T11:58:08;8.98;;;5.72;;
8594;SDS011;4335;48.860;9.198;2022-07-29T12:00:38;6.60;;;5.55;;
8594;SDS011;4335;48.860;9.198;2022-07-29T12:03:08;5.65;;;5.03;;
8594;SDS011;4335;48.860;9.198;2022-07-29T12:05:38;5.00;;;4.50;;
8594;SDS011;4335;48.860;9.198;2022-07-29T12:08:13;4.82;;;4.40;;
8594;SDS011;4335;48.860;9.198;2022-07-29T12:10:44;7.35;;;5.30;;
8594;SDS011;4335;48.860;9.198;2022-07-29T12:13:14;7.72;;;4.63;;
8594;SDS011;4335;48.860;9.198;2022-07-29T12:15:51;6.60;;;4.95;;
8594;SDS011;4335;48.860;9.198;2022-07-29T12:18:19;4.97;;;4.57;;
8594;SDS011;4335;48.860;9.198;2022-07-29T12:20:47;4.82;;;4.43;;
8594;SDS011;4335;48.860;9.198;2022-07-29T12:23:15;6.72;;;5.03;;
8594;SDS011;4335;48.860;9.198;2022-07-29T12:25:43;14.70;;;5.30;;
8594;SDS011;4335;48.860;9.198;2022-07-29T12:28:15;9.65;;;4.85;;
8594;SDS011;4335;48.860;9.198;2022-07-29T12:30:44;6.22;;;4.18;;
8594;SDS011;4335;48.860;9.198;2022-07-29T12:33:22;7.70;;;4.15;;
8594;SDS011;4335;48.860;9.198;2022-07-29T12:35:53;5.45;;;3.70;;
8594;SDS011;4335;48.860;9.198;2022-07-29T12:38:21;6.60;;;3.70;;
8594;SDS011;4335;48.860;9.198;2022-07-29T12:40:49;4.55;;;3.20;;
8594;SDS011;4335;48.860;9.198;2022-07-29T12:43:22;4.38;;;2.80;;
8594;SDS011;4335;48.860;9.198;2022-07-29T12:45:51;7.00;;;3.05;;
8594;SDS011;4335;48.860;9.198;2022-07-29T12:48:32;8.38;;;2.65;;
8594;SDS011;4335;48.860;9.198;2022-07-29T12:51:00;3.37;;;2.80;;
8594;SDS011;4335;48.860;9.198;2022-07-29T12:53:29;6.17;;;2.60;;
8594;SDS011;4335;48.860;9.198;2022-07-29T12:55:57;5.00;;;3.00;;
8594;SDS011;4335;48.860;9.198;2022-07-29T13:01:01;6.75;;;2.85;;
8594;SDS011;4335;48.860;9.198;2022-07-29T13:03:50;3.35;;;2.65;;
8594;SDS011;4335;48.860;9.198;2022-07-29T13:06:30;5.33;;;3.30;;
8594;SDS011;4335;48.860;9.198;2022-07-29T13:09:09;4.03;;;3.20;;
8594;SDS011;4335;48.860;9.198;2022-07-29T13:11:39;19.63;;;4.53;;
8594;SDS011;4335;48.860;9.198;2022-07-29T13:14:09;8.17;;;4.00;;
8594;SDS011;4335;48.860;9.198;2022-07-29T13:19:32;4.70;;;3.53;;
8594;SDS011;4335;48.860;9.198;2022-07-29T13:22:01;4.17;;;3.27;;
8594;SDS011;4335;48.860;9.198;2022-07-29T13:24:29;5.30;;;3.60;;
8594;SDS011;4335;48.860;9.198;2022-07-29T13:26:56;4.47;;;3.10;;
8594;SDS011;4335;48.860;9.198;2022-07-29T13:29:25;5.37;;;3.23;;
8594;SDS011;4335;48.860;9.198;2022-07-29T13:31:53;3.57;;;3.27;;
8594;SDS011;4335;48.860;9.198;2022-07-29T13:34:23;3.67;;;3.07;;
8594;SDS011;4335;48.860;9.198;2022-07-29T13:36:51;6.30;;;3.73;;
8594;SDS011;4335;48.860;9.198;2022-07-29T13:39:21;4.00;;;3.60;;
8594;SDS011;4335;48.860;9.198;2022-07-29T13:41:48;5.00;;;3.87;;
8594;SDS011;4335;48.860;9.198;2022-07-29T13:44:16;4.53;;;3.77;;
8594;SDS011;4335;48.860;9.198;2022-07-29T13:46:48;4.97;;;3.80;;
8594;SDS011;4335;48.860;9.198;2022-07-29T13:49:15;5.10;;;3.47;;
8594;SDS011;4335;48.860;9.198;2022-07-29T13:51:42;3.87;;;3.57;;
8594;SDS011;4335;48.860;9.198;2022-07-29T13:54:12;5.27;;;4.00;;
8594;SDS011;4335;48.860;9.198;2022-07-29T13:56:40;4.40;;;4.00;;
8594;SDS011;4335;48.860;9.198;2022-07-29T13:59:07;6.33;;;4.73;;
8594;SDS011;4335;48.860;9.198;2022-07-29T14:01:38;4.23;;;3.83;;
8594;SDS011;4335;48.860;9.198;2022-07-29T14:04:08;4.70;;;4.30;;
8594;SDS011;4335;48.860;9.198;2022-07-29T14:06:36;5.60;;;4.07;;
8594;SDS011;4335;48.860;9.198;2022-07-29T14:09:04;6.80;;;4.27;;
8594;SDS011;4335;48.860;9.198;2022-07-29T14:11:33;4.90;;;4.50;;
8594;SDS011;4335;48.860;9.198;2022-07-29T14:14:03;5.47;;;3.90;;
8594;SDS011;4335;48.860;9.198;2022-07-29T14:16:31;4.87;;;4.50;;
8594;SDS011;4335;48.860;9.198;2022-07-29T14:19:01;4.40;;;4.00;;
8594;SDS011;4335;48.860;9.198;2022-07-29T14:21:30;4.87;;;4.37;;
8594;SDS011;4335;48.860;9.198;2022-07-29T14:23:59;6.60;;;4.00;;
8594;SDS011;4335;48.860;9.198;2022-07-29T14:26:27;9.13;;;4.93;;
8594;SDS011;4335;48.860;9.198;2022-07-29T14:28:54;6.00;;;4.18;;
8594;SDS011;4335;48.860;9.198;2022-07-29T14:31:21;7.95;;;4.05;;
8594;SDS011;4335;48.860;9.198;2022-07-29T14:33:52;6.20;;;4.40;;
8594;SDS011;4335;48.860;9.198;2022-07-29T14:36:21;6.83;;;4.80;;
8594;SDS011;4335;48.860;9.198;2022-07-29T14:38:50;4.47;;;4.07;;
8594;SDS011;4335;48.860;9.198;2022-07-29T14:41:18;4.68;;;4.28;;
8594;SDS011;4335;48.860;9.198;2022-07-29T14:43:46;5.50;;;4.50;;
8594;SDS011;4335;48.860;9.198;2022-07-29T14:46:16;6.07;;;3.90;;
8594;SDS011;4335;48.860;9.198;2022-07-29T14:48:44;5.23;;;4.73;;
8594;SDS011;4335;48.860;9.198;2022-07-29T14:51:11;5.47;;;4.20;;
8594;SDS011;4335;48.860;9.198;2022-07-29T14:53:39;6.60;;;5.40;;
8594;SDS011;4335;48.860;9.198;2022-07-29T14:56:08;6.70;;;5.00;;
8594;SDS011;4335;48.860;9.198;2022-07-29T14:58:36;7.60;;;6.18;;
8594;SDS011;4335;48.860;9.198;2022-07-29T15:01:03;8.95;;;5.97;;
8594;SDS011;4335;48.860;9.198;2022-07-29T15:03:31;7.83;;;5.37;;
8594;SDS011;4335;48.860;9.198;2022-07-29T15:06:01;5.97;;;4.57;;
8594;SDS011;4335;48.860;9.198;2022-07-29T15:08:29;4.97;;;4.50;;
8594;SDS011;4335;48.860;9.198;2022-07-29T15:10:59;6.13;;;4.97;;
8594;SDS011;4335;48.860;9.198;2022-07-29T15:13:28;6.57;;;5.10;;
8594;SDS011;4335;48.860;9.198;2022-07-29T15:15:55;6.67;;;5.00;;
8594;SDS011;4335;48.860;9.198;2022-07-29T15:18:23;9.03;;;6.47;;
8594;SDS011;4335;48.860;9.198;2022-07-29T15:20:53;7.47;;;5.83;;
8594;SDS011;4335;48.860;9.198;2022-07-29T15:23:23;6.37;;;5.47;;
8594;SDS011;4335;48.860;9.198;2022-07-29T15:25:50;8.33;;;5.70;;
8594;SDS011;4335;48.860;9.198;2022-07-29T15:28:21;5.53;;;5.03;;
8594;SDS011;4335;48.860;9.198;2022-07-29T15:30:56;6.00;;;5.40;;
8594;SDS011;4335;48.860;9.198;2022-07-29T15:33:23;6.53;;;5.93;;
8594;SDS011;4335;48.860;9.198;2022-07-29T15:35:51;7.33;;;6.03;;
8594;SDS011;4335;48.860;9.198;2022-07-29T15:38:22;8.10;;;6.47;;
8594;SDS011;4335;48.860;9.198;2022-07-29T15:40:56;8.00;;;5.80;;
8594;SDS011;4335;48.860;9.198;2022-07-29T15:43:23;6.23;;;5.27;;
8594;SDS011;4335;48.860;9.198;2022-07-29T15:45:50;7.90;;;6.47;;
8594;SDS011;4335;48.860;9.198;2022-07-29T15:48:38;7.53;;;5.70;;
8594;SDS011;4335;48.860;9.198;2022-07-29T15:51:05;10.40;;;5.97;;
8594;SDS011;4335;48.860;9.198;2022-07-29T15:53:33;7.00;;;5.87;;
8594;SDS011;4335;48.860;9.198;2022-07-29T15:56:04;6.90;;;5.13;;
8594;SDS011;4335;48.860;9.198;2022-07-29T15:58:31;7.20;;;5.73;;
8594;SDS011;4335;48.860;9.198;2022-07-29T16:00:59;5.80;;;5.03;;
8594;SDS011;4335;48.860;9.198;2022-07-29T16:03:26;6.03;;;5.10;;